createdAt,value
2023-04-02T00:00:27.569Z,7.72
2023-04-02T00:05:51.005Z,6.30
2023-04-02T00:11:01.894Z,5.45
2023-04-02T00:16:07.893Z,6.35
2023-04-02T00:21:22.386Z,9.68
2023-04-02T00:26:34.438Z,9.71
2023-04-02T00:31:42.445Z,7.38
2023-04-02T00:36:46.727Z,6.09
2023-04-02T00:41:58.788Z,6.13
2023-04-02T00:47:09.218Z,9.32
2023-04-02T00:52:16.639Z,9.77
2023-04-02T00:57:27.013Z,7.47
2023-04-02T01:02:38.526Z,6.10
2023-04-02T01:08:00.691Z,5.45
2023-04-02T01:13:18.769Z,8.33
2023-04-02T01:18:35.745Z,10.22
2023-04-02T01:23:59.747Z,8.15
2023-04-02T01:29:16.058Z,6.47
2023-04-02T01:34:22.246Z,5.53
2023-04-02T01:39:42.037Z,6.45
2023-04-02T01:44:53.309Z,9.79
2023-04-02T01:50:19.653Z,10.12
2023-04-02T01:55:33.194Z,7.77
2023-04-02T02:00:41.446Z,6.44
2023-04-02T02:05:44.646Z,5.63
2023-04-02T02:10:49.653Z,7.78
2023-04-02T02:15:52.572Z,10.74
2023-04-02T02:21:00.164Z,9.78
2023-04-02T02:26:06.305Z,7.60
2023-04-02T02:31:19.566Z,6.39
2023-04-02T02:36:34.100Z,5.62
2023-04-02T02:41:45.291Z,7.53
2023-04-02T02:47:10.751Z,10.49
2023-04-02T02:52:17.557Z,9.46
2023-04-02T02:57:23.230Z,7.41
2023-04-02T03:02:28.636Z,6.26
2023-04-02T03:07:32.610Z,5.52
2023-04-02T03:13:00.104Z,6.95
2023-04-02T03:18:26.544Z,10.03
2023-04-02T03:23:36.469Z,10.03
2023-04-02T03:28:45.268Z,7.72
2023-04-02T03:33:59.116Z,6.37
2023-04-02T03:39:10.330Z,5.65
2023-04-02T03:44:26.258Z,8.35
2023-04-02T03:49:36.251Z,10.37
2023-04-02T03:54:40.957Z,8.45
2023-04-02T04:00:05.170Z,6.66
2023-04-02T04:05:21.556Z,5.64
2023-04-02T04:10:26.338Z,6.97
2023-04-02T04:15:56.320Z,9.82
2023-04-02T04:21:03.412Z,8.71
2023-04-02T04:26:13.016Z,6.71
2023-04-02T04:31:27.137Z,5.58
2023-04-02T04:36:35.628Z,6.37
2023-04-02T04:41:40.891Z,9.61
2023-04-02T04:46:55.965Z,9.35
2023-04-02T04:52:06.293Z,7.02
2023-04-02T04:57:27.409Z,5.78
2023-04-02T05:02:37.323Z,6.67
2023-04-02T05:07:49.770Z,9.92
2023-04-02T05:13:03.958Z,9.62
2023-04-02T05:18:25.274Z,7.23
2023-04-02T05:23:37.369Z,5.88
2023-04-02T05:29:11.016Z,5.23
2023-04-02T05:34:21.672Z,8.04
2023-04-02T05:39:26.932Z,10.33
2023-04-02T05:44:39.063Z,9.32
2023-04-02T05:49:49.077Z,7.15
2023-04-02T05:54:59.313Z,5.94
2023-04-02T06:00:09.045Z,6.59
2023-04-02T06:05:17.603Z,9.71
2023-04-02T06:10:29.108Z,9.93
2023-04-02T06:15:33.858Z,7.56
2023-04-02T06:20:36.819Z,6.23
2023-04-02T06:25:45.945Z,5.80
2023-04-02T06:30:50.322Z,8.71
2023-04-02T06:35:55.182Z,10.37
2023-04-02T06:41:20.676Z,8.51
2023-04-02T06:46:38.995Z,6.73
2023-04-02T06:51:44.242Z,5.76
2023-04-02T06:56:51.524Z,6.53
2023-04-02T07:02:19.055Z,9.84
2023-04-02T07:07:21.860Z,10.16
2023-04-02T07:12:26.080Z,8.01
2023-04-02T07:17:28.856Z,7.07
2023-04-02T07:22:31.604Z,9.93
2023-04-02T07:27:34.271Z,10.37
2023-04-02T07:32:38.489Z,8.16
2023-04-02T07:37:41.228Z,6.86
2023-04-02T07:42:45.394Z,7.43
2023-04-02T07:47:48.128Z,10.49
2023-04-02T07:52:50.854Z,9.66
2023-04-02T07:57:56.193Z,7.59
2023-04-02T08:02:59.374Z,6.48
2023-04-02T08:08:02.182Z,7.48
2023-04-02T08:13:04.880Z,10.50
2023-04-02T08:18:08.204Z,10.37
2023-04-02T08:23:17.208Z,8.21
2023-04-02T08:28:21.397Z,7.01
2023-04-02T08:33:24.227Z,7.69
2023-04-02T08:38:26.954Z,10.71
2023-04-02T08:43:57.842Z,10.72
2023-04-02T08:49:04.630Z,8.30
2023-04-02T08:54:29.385Z,7.01
2023-04-02T08:59:38.955Z,7.04
2023-04-02T09:04:42.083Z,10.18
2023-04-02T09:09:48.881Z,10.51
2023-04-02T09:14:54.384Z,8.22
2023-04-02T09:20:36.463Z,7.01
2023-04-02T09:25:54.118Z,7.60
2023-04-02T09:31:20.967Z,10.74
2023-04-02T09:36:38.817Z,9.67
2023-04-02T09:41:43.832Z,7.90
2023-04-02T09:47:04.923Z,7.09
2023-04-02T09:52:28.438Z,9.49
2023-04-02T09:57:32.944Z,10.61
2023-04-02T10:02:35.659Z,8.61
2023-04-02T10:07:38.376Z,7.44
2023-04-02T10:12:42.497Z,6.74
2023-04-02T10:17:54.187Z,7.58
2023-04-02T10:22:56.943Z,10.86
2023-04-02T10:28:11.743Z,10.51
2023-04-02T10:33:20.168Z,8.63
2023-04-02T10:38:51.282Z,9.07
2023-04-02T10:44:16.775Z,11.60
2023-04-02T10:49:31.783Z,9.90
2023-04-02T10:54:51.465Z,8.53
2023-04-02T11:00:18.993Z,9.62
2023-04-02T11:05:48.334Z,11.22
2023-04-02T11:11:08.002Z,9.34
2023-04-02T11:16:15.561Z,8.32
2023-04-02T11:21:30.434Z,10.31
2023-04-02T11:26:41.627Z,11.65
2023-04-02T11:31:46.000Z,9.87
2023-04-02T11:36:54.870Z,8.83
2023-04-02T11:42:04.572Z,8.31
2023-04-02T11:47:19.672Z,10.08
2023-04-02T11:52:32.539Z,11.62
2023-04-02T11:58:02.565Z,9.91
2023-04-02T12:03:25.676Z,8.91
2023-04-02T12:08:57.024Z,11.14
2023-04-02T12:14:01.854Z,10.42
2023-04-02T12:19:08.609Z,9.24
2023-04-02T12:24:17.769Z,9.88
2023-04-02T12:29:25.723Z,10.88
2023-04-02T12:34:30.721Z,9.68
2023-04-02T12:39:35.372Z,8.97
2023-04-02T12:44:38.117Z,9.61
2023-04-02T12:49:43.772Z,11.56
2023-04-02T12:54:52.949Z,10.18
2023-04-02T12:59:58.671Z,9.23
2023-04-02T13:05:02.453Z,8.66
2023-04-02T13:10:26.605Z,9.71
2023-04-02T13:15:43.639Z,11.46
2023-04-02T13:20:59.259Z,9.93
2023-04-02T13:26:24.318Z,9.00
2023-04-02T13:31:28.558Z,8.43
2023-04-02T13:36:31.280Z,8.08
2023-04-02T13:41:39.976Z,7.86
2023-04-02T13:46:42.685Z,7.69
2023-04-02T13:51:51.819Z,8.91
2023-04-02T13:56:57.819Z,10.50
2023-04-02T14:02:07.557Z,9.36
2023-04-02T14:07:23.361Z,8.79
2023-04-02T14:12:44.545Z,8.42
2023-04-02T14:18:11.904Z,8.15
2023-04-02T14:23:31.526Z,7.92
2023-04-02T14:28:51.285Z,7.68
2023-04-02T14:34:35.004Z,7.50
2023-04-02T14:39:53.465Z,7.40
2023-04-02T14:45:05.455Z,7.36
2023-04-02T14:50:17.231Z,7.32
2023-04-02T14:55:42.605Z,7.29
2023-04-02T15:00:52.956Z,7.29
2023-04-02T15:05:56.071Z,7.42
2023-04-02T15:11:12.209Z,7.57
2023-04-02T15:16:22.822Z,7.64
2023-04-02T15:21:55.884Z,7.68
2023-04-02T15:27:49.563Z,7.68
2023-04-02T15:32:56.448Z,7.64
2023-04-02T15:38:08.232Z,7.56
2023-04-02T15:43:16.270Z,7.45
2023-04-02T15:48:26.428Z,7.37
2023-04-02T15:53:44.783Z,7.30
2023-04-02T15:59:06.930Z,7.25
2023-04-02T16:04:45.876Z,7.17
2023-04-02T16:10:10.168Z,7.11
2023-04-02T16:15:28.398Z,7.22
2023-04-02T16:20:43.793Z,8.72
2023-04-02T16:26:02.444Z,10.56
2023-04-02T16:31:19.813Z,12.57
2023-04-02T16:36:22.648Z,12.90
2023-04-02T16:41:31.751Z,11.63
2023-04-02T16:46:46.692Z,10.49
2023-04-02T16:52:18.429Z,9.51
2023-04-02T16:57:33.129Z,8.64
2023-04-02T17:02:43.934Z,8.08
2023-04-02T17:08:17.356Z,7.64
2023-04-02T17:13:41.893Z,7.27
2023-04-02T17:18:48.503Z,6.89
2023-04-02T17:23:56.807Z,6.61
2023-04-02T17:29:07.434Z,6.34
2023-04-02T17:34:17.864Z,6.12
2023-04-02T17:39:32.652Z,5.88
2023-04-02T17:45:03.489Z,5.65
2023-04-02T17:50:12.075Z,5.44
2023-04-02T17:55:40.895Z,5.26
2023-04-02T18:00:52.661Z,5.10
2023-04-02T18:06:03.623Z,4.97
2023-04-02T18:11:10.519Z,4.84
2023-04-02T18:16:19.105Z,4.71
2023-04-02T18:21:52.906Z,4.61
2023-04-02T18:27:37.391Z,4.49
2023-04-02T18:33:11.070Z,4.35
2023-04-02T18:38:36.505Z,4.25
2023-04-02T18:43:55.853Z,4.15
2023-04-02T18:49:02.698Z,4.06
2023-04-02T18:54:38.580Z,3.98
2023-04-02T18:59:45.318Z,3.89
2023-04-02T19:04:53.205Z,3.80
2023-04-02T19:10:01.085Z,3.73
2023-04-02T19:15:16.124Z,3.64
2023-04-02T19:20:24.747Z,3.53
2023-04-02T19:25:30.631Z,3.44
2023-04-02T19:30:39.124Z,3.37
2023-04-02T19:35:48.776Z,3.30
2023-04-02T19:40:59.774Z,3.22
2023-04-02T19:46:02.962Z,3.17
2023-04-02T19:51:05.728Z,3.11
2023-04-02T19:56:08.744Z,3.05
2023-04-02T20:01:11.486Z,2.99
2023-04-02T20:06:14.900Z,2.93
2023-04-02T20:11:17.600Z,2.87
2023-04-02T20:16:21.880Z,2.82
2023-04-02T20:21:24.804Z,2.77
2023-04-02T20:26:27.730Z,2.71
2023-04-02T20:31:30.705Z,2.67
2023-04-02T20:36:33.712Z,2.63
2023-04-02T20:41:36.531Z,2.59
2023-04-02T20:46:40.288Z,2.55
2023-04-02T20:51:43.733Z,2.52
2023-04-02T20:56:46.690Z,2.47
2023-04-02T21:01:49.460Z,2.41
2023-04-02T21:06:57.085Z,2.38
2023-04-02T21:12:00.141Z,3.71
2023-04-02T21:17:07.002Z,7.56
2023-04-02T21:22:09.725Z,7.99
2023-04-02T21:27:12.664Z,5.95
2023-04-02T21:32:21.763Z,4.79
2023-04-02T21:37:25.722Z,4.03
2023-04-02T21:42:29.081Z,3.49
2023-04-02T21:47:31.799Z,3.11
2023-04-02T21:52:34.458Z,2.82
2023-04-02T21:57:37.149Z,2.58
2023-04-02T22:02:39.987Z,2.40
2023-04-02T22:07:42.743Z,2.22
2023-04-02T22:12:45.570Z,2.08
2023-04-02T22:17:48.260Z,1.98
2023-04-02T22:22:51.472Z,3.30
2023-04-02T22:27:54.196Z,7.18
2023-04-02T22:32:56.884Z,7.36
2023-04-02T22:37:59.612Z,5.35
2023-04-02T22:43:02.727Z,4.26
2023-04-02T22:48:05.719Z,3.55
2023-04-02T22:53:08.434Z,3.05
2023-04-02T22:58:11.099Z,2.65
2023-04-02T23:03:13.863Z,2.34
2023-04-02T23:08:16.517Z,2.08
2023-04-02T23:13:19.204Z,1.87
2023-04-02T23:18:22.457Z,1.72
2023-04-02T23:23:26.617Z,1.61
2023-04-02T23:28:29.290Z,2.78
2023-04-02T23:33:32.159Z,6.67
2023-04-02T23:38:34.887Z,6.48
2023-04-02T23:43:37.564Z,4.63
2023-04-02T23:48:41.215Z,3.65
2023-04-02T23:53:43.922Z,2.96
2023-04-02T23:58:46.630Z,2.46
